createdAt,value
2018-12-31T00:00:38.415Z,102533.94
2018-12-31T00:03:08.092Z,102524.72
2018-12-31T00:05:37.801Z,102526.91
2018-12-31T00:08:07.546Z,102526.06
2018-12-31T00:10:37.166Z,102530.83
2018-12-31T00:13:06.832Z,102530.78
2018-12-31T00:15:36.497Z,102520.88
2018-12-31T00:18:06.172Z,102512.47
2018-12-31T00:20:36.401Z,102505.16
2018-12-31T00:23:06.135Z,102509.01
2018-12-31T00:25:35.796Z,102519.20
2018-12-31T00:28:05.546Z,102517.83
2018-12-31T00:30:35.195Z,102518.76
2018-12-31T00:33:04.807Z,102520.98
2018-12-31T00:35:34.470Z,102521.00
2018-12-31T00:38:04.147Z,102530.72
2018-12-31T00:40:33.872Z,102535.58
2018-12-31T00:43:03.493Z,102553.45
2018-12-31T00:45:33.133Z,102552.21
2018-12-31T00:48:02.746Z,102561.73
2018-12-31T00:50:32.412Z,102564.17
2018-12-31T00:53:02.058Z,102560.19
2018-12-31T00:55:31.719Z,102558.70
2018-12-31T00:58:01.355Z,102563.39
2018-12-31T01:00:31.025Z,102558.01
2018-12-31T01:03:00.689Z,102565.45
2018-12-31T01:05:30.511Z,102554.46
2018-12-31T01:08:00.256Z,102541.58
2018-12-31T01:10:30.292Z,102542.63
2018-12-31T01:12:59.989Z,102553.47
2018-12-31T01:15:29.676Z,102548.88
2018-12-31T01:17:59.295Z,102556.39
2018-12-31T01:20:28.937Z,102560.30
2018-12-31T01:22:58.566Z,102565.00
2018-12-31T01:25:28.198Z,102557.57
2018-12-31T01:27:57.929Z,102555.69
2018-12-31T01:30:27.756Z,102552.26
2018-12-31T01:32:57.775Z,102544.25
2018-12-31T01:35:27.790Z,102547.89
2018-12-31T01:37:57.487Z,102553.39
2018-12-31T01:40:27.320Z,102558.61
2018-12-31T01:42:57.152Z,102558.08
2018-12-31T01:45:26.795Z,102548.39
2018-12-31T01:47:56.699Z,102555.20
2018-12-31T01:50:26.416Z,102560.13
2018-12-31T01:52:56.124Z,102565.64
2018-12-31T01:55:25.788Z,102558.41
2018-12-31T01:57:55.497Z,102570.25
2018-12-31T02:00:25.208Z,102569.82
2018-12-31T02:02:55.144Z,102573.47
2018-12-31T02:05:24.781Z,102572.22
2018-12-31T02:07:54.498Z,102566.51
2018-12-31T02:10:24.171Z,102559.96
2018-12-31T02:12:53.907Z,102558.01
2018-12-31T02:15:23.686Z,102557.91
2018-12-31T02:17:53.424Z,102556.30
2018-12-31T02:20:23.199Z,102547.33
2018-12-31T02:22:52.945Z,102545.37
2018-12-31T02:25:22.567Z,102554.48
2018-12-31T02:27:52.205Z,102549.41
2018-12-31T02:30:22.051Z,102551.03
2018-12-31T02:32:51.678Z,102548.77
2018-12-31T02:35:21.415Z,102551.81
2018-12-31T02:37:51.093Z,102551.95
2018-12-31T02:40:20.695Z,102546.71
2018-12-31T02:42:50.349Z,102551.53
2018-12-31T02:45:20.239Z,102552.11
2018-12-31T02:47:50.061Z,102549.00
2018-12-31T02:50:19.833Z,102553.17
2018-12-31T02:52:49.458Z,102549.88
2018-12-31T02:55:19.089Z,102554.36
2018-12-31T02:57:48.822Z,102558.50
2018-12-31T03:00:19.102Z,102555.03
2018-12-31T03:02:48.734Z,102551.48
2018-12-31T03:05:18.363Z,102549.48
2018-12-31T03:07:48.002Z,102550.32
2018-12-31T03:10:17.672Z,102559.52
2018-12-31T03:12:47.284Z,102567.42
2018-12-31T03:15:16.984Z,102562.32
2018-12-31T03:17:46.634Z,102565.47
2018-12-31T03:20:16.255Z,102551.70
2018-12-31T03:22:45.915Z,102544.02
2018-12-31T03:25:15.534Z,102548.64
2018-12-31T03:27:45.166Z,102553.40
2018-12-31T03:30:14.962Z,102558.95
2018-12-31T03:32:44.599Z,102543.34
2018-12-31T03:35:14.390Z,102541.22
2018-12-31T03:37:44.089Z,102559.09
2018-12-31T03:40:13.774Z,102554.64
2018-12-31T03:42:43.496Z,102553.27
2018-12-31T03:45:13.123Z,102544.14
2018-12-31T03:47:42.841Z,102537.06
2018-12-31T03:50:12.586Z,102543.55
2018-12-31T03:52:42.271Z,102551.73
2018-12-31T03:55:11.900Z,102567.34
2018-12-31T03:57:41.572Z,102570.80
2018-12-31T04:00:11.289Z,102569.26
2018-12-31T04:02:41.026Z,102573.77
2018-12-31T04:05:10.775Z,102573.94
2018-12-31T04:07:40.410Z,102575.42
2018-12-31T04:10:10.106Z,102567.80
2018-12-31T04:12:39.846Z,102573.48
2018-12-31T04:15:09.588Z,102574.06
2018-12-31T04:17:39.238Z,102577.34
2018-12-31T04:20:09.027Z,102577.78
2018-12-31T04:22:38.696Z,102584.83
2018-12-31T04:25:08.330Z,102577.05
2018-12-31T04:27:38.018Z,102571.15
2018-12-31T04:30:07.750Z,102567.77
2018-12-31T04:32:37.400Z,102562.94
2018-12-31T04:35:07.139Z,102558.14
2018-12-31T04:37:36.795Z,102557.81
2018-12-31T04:40:06.485Z,102551.81
2018-12-31T04:42:36.192Z,102554.88
2018-12-31T04:45:06.194Z,102562.91
2018-12-31T04:47:35.835Z,102556.19
2018-12-31T04:50:06.031Z,102563.05
2018-12-31T04:52:35.804Z,102566.20
2018-12-31T04:55:05.702Z,102570.19
2018-12-31T04:57:35.523Z,102569.87
2018-12-31T05:00:05.836Z,102578.66
2018-12-31T05:02:35.577Z,102575.19
2018-12-31T05:05:05.554Z,102576.13
2018-12-31T05:07:35.229Z,102571.12
2018-12-31T05:10:05.142Z,102573.68
2018-12-31T05:12:34.792Z,102565.27
2018-12-31T05:15:04.557Z,102562.53
2018-12-31T05:17:34.229Z,102565.59
2018-12-31T05:20:03.914Z,102569.22
2018-12-31T05:22:33.584Z,102563.41
2018-12-31T05:25:03.311Z,102572.02
2018-12-31T05:27:40.329Z,102584.80
2018-12-31T05:30:10.066Z,102578.37
2018-12-31T05:32:39.743Z,102583.61
2018-12-31T05:35:09.362Z,102586.00
2018-12-31T05:37:39.038Z,102581.92
2018-12-31T05:40:08.710Z,102583.38
2018-12-31T05:42:38.343Z,102589.37
2018-12-31T05:45:08.083Z,102596.53
2018-12-31T05:47:37.709Z,102591.50
2018-12-31T05:50:07.425Z,102592.08
2018-12-31T05:52:42.534Z,102590.73
2018-12-31T05:55:12.179Z,102600.84
2018-12-31T05:57:41.843Z,102591.29
2018-12-31T06:00:11.475Z,102606.41
2018-12-31T06:02:41.115Z,102610.25
2018-12-31T06:05:10.790Z,102609.39
2018-12-31T06:07:40.507Z,102609.05
2018-12-31T06:10:10.159Z,102605.00
2018-12-31T06:12:39.822Z,102613.05
2018-12-31T06:15:09.545Z,102602.01
2018-12-31T06:17:39.201Z,102590.27
2018-12-31T06:20:08.889Z,102600.03
2018-12-31T06:22:38.559Z,102597.55
2018-12-31T06:25:08.203Z,102609.28
2018-12-31T06:27:37.851Z,102609.17
2018-12-31T06:30:07.596Z,102614.69
2018-12-31T06:32:37.233Z,102607.80
2018-12-31T06:35:06.878Z,102610.80
2018-12-31T06:37:36.550Z,102598.11
2018-12-31T06:40:06.364Z,102596.04
2018-12-31T06:42:38.860Z,102593.88
2018-12-31T06:45:08.586Z,102591.94
2018-12-31T06:47:38.194Z,102597.42
2018-12-31T06:50:07.936Z,102597.27
2018-12-31T06:52:37.623Z,102595.38
2018-12-31T06:55:07.388Z,102598.95
2018-12-31T06:57:37.008Z,102605.64
2018-12-31T07:00:06.858Z,102615.19
2018-12-31T07:02:36.515Z,102630.48
2018-12-31T07:05:06.380Z,102634.88
2018-12-31T07:07:36.022Z,102631.36
2018-12-31T07:10:06.426Z,102633.31
2018-12-31T07:12:36.060Z,102640.16
2018-12-31T07:15:06.383Z,102640.25
2018-12-31T07:17:36.095Z,102641.77
2018-12-31T07:20:06.883Z,102639.09
2018-12-31T07:22:36.518Z,102643.69
2018-12-31T07:25:06.433Z,102649.64
2018-12-31T07:27:36.067Z,102651.92
2018-12-31T07:30:06.103Z,102645.44
2018-12-31T07:32:35.761Z,102647.59
2018-12-31T07:35:05.512Z,102645.82
2018-12-31T07:37:35.135Z,102656.45
2018-12-31T07:40:04.989Z,102655.27
2018-12-31T07:42:34.721Z,102657.34
2018-12-31T07:45:04.464Z,102661.83
2018-12-31T07:47:34.182Z,102665.54
2018-12-31T07:50:03.997Z,102668.50
2018-12-31T07:52:33.743Z,102662.48
2018-12-31T07:55:03.367Z,102663.83
2018-12-31T07:57:33.040Z,102668.05
2018-12-31T08:00:02.780Z,102672.47
2018-12-31T08:02:32.474Z,102673.01
2018-12-31T08:05:02.130Z,102675.52
2018-12-31T08:07:31.823Z,102683.38
2018-12-31T08:10:02.337Z,102677.87
2018-12-31T08:12:32.078Z,102678.34
2018-12-31T08:15:01.979Z,102671.23
2018-12-31T08:17:31.626Z,102678.70
2018-12-31T08:20:01.263Z,102675.40
2018-12-31T08:22:31.008Z,102671.70
2018-12-31T08:25:00.769Z,102663.19
2018-12-31T08:27:30.430Z,102659.47
2018-12-31T08:30:00.267Z,102655.00
2018-12-31T08:32:30.123Z,102662.31
2018-12-31T08:34:59.787Z,102652.28
2018-12-31T08:37:29.505Z,102659.45
2018-12-31T08:39:59.136Z,102661.58
2018-12-31T08:42:28.788Z,102660.67
2018-12-31T08:44:58.442Z,102662.20
2018-12-31T08:47:28.082Z,102663.20
2018-12-31T08:49:57.761Z,102653.48
2018-12-31T08:52:27.390Z,102651.48
2018-12-31T08:54:57.036Z,102650.80
2018-12-31T08:57:26.668Z,102642.96
2018-12-31T08:59:56.331Z,102639.83
2018-12-31T09:02:25.977Z,102637.53
2018-12-31T09:05:01.473Z,102639.81
2018-12-31T09:07:31.136Z,102643.41
2018-12-31T09:10:00.759Z,102644.38
2018-12-31T09:12:30.399Z,102645.02
2018-12-31T09:15:00.163Z,102648.45
2018-12-31T09:17:37.297Z,102644.67
2018-12-31T09:20:08.347Z,102651.98
2018-12-31T09:22:38.058Z,102662.72
2018-12-31T09:25:07.943Z,102650.70
2018-12-31T09:27:37.719Z,102657.37
2018-12-31T09:30:07.478Z,102661.13
2018-12-31T09:32:37.189Z,102656.87
2018-12-31T09:35:07.003Z,102654.66
2018-12-31T09:37:36.679Z,102660.31
2018-12-31T09:40:06.424Z,102664.14
2018-12-31T09:42:36.078Z,102646.65
2018-12-31T09:45:05.885Z,102653.64
2018-12-31T09:47:35.545Z,102647.81
2018-12-31T09:50:05.349Z,102648.23
2018-12-31T09:52:35.015Z,102647.73
2018-12-31T09:55:05.787Z,102641.64
2018-12-31T09:57:35.418Z,102648.28
2018-12-31T10:00:06.060Z,102644.98
2018-12-31T10:02:35.766Z,102644.11
2018-12-31T10:05:05.715Z,102641.78
2018-12-31T10:07:35.468Z,102646.83
2018-12-31T10:10:05.444Z,102643.19
2018-12-31T10:12:35.083Z,102635.30
2018-12-31T10:15:05.230Z,102634.84
2018-12-31T10:17:34.860Z,102640.67
2018-12-31T10:20:05.032Z,102633.86
2018-12-31T10:22:34.671Z,102628.28
2018-12-31T10:25:04.426Z,102626.46
2018-12-31T10:27:34.085Z,102619.33
2018-12-31T10:30:03.792Z,102614.75
2018-12-31T10:32:33.451Z,102610.34
2018-12-31T10:35:03.118Z,102607.55
2018-12-31T10:37:32.778Z,102607.27
2018-12-31T10:40:02.418Z,102598.88
2018-12-31T10:42:32.041Z,102604.20
2018-12-31T10:45:01.712Z,102605.02
2018-12-31T10:47:31.334Z,102598.45
2018-12-31T10:50:00.985Z,102592.35
2018-12-31T10:52:30.685Z,102596.72
2018-12-31T10:55:00.369Z,102597.22
2018-12-31T10:57:30.001Z,102600.11
2018-12-31T10:59:59.630Z,102594.56
2018-12-31T11:02:29.276Z,102591.89
2018-12-31T11:04:58.919Z,102592.59
2018-12-31T11:07:28.561Z,102575.13
2018-12-31T11:09:58.209Z,102572.90
2018-12-31T11:12:27.861Z,102570.96
2018-12-31T11:14:57.512Z,102579.70
2018-12-31T11:17:27.160Z,102579.92
2018-12-31T11:19:56.809Z,102588.55
2018-12-31T11:22:26.452Z,102580.62
2018-12-31T11:24:56.192Z,102580.02
2018-12-31T11:27:25.822Z,102577.02
2018-12-31T11:29:55.547Z,102581.85
2018-12-31T11:32:25.225Z,102579.46
2018-12-31T11:34:54.894Z,102582.87
2018-12-31T11:37:24.555Z,102573.03
2018-12-31T11:39:54.207Z,102570.31
2018-12-31T11:42:23.966Z,102575.94
2018-12-31T11:44:53.593Z,102578.40
2018-12-31T11:47:23.256Z,102570.45
2018-12-31T11:49:52.941Z,102564.61
2018-12-31T11:52:22.576Z,102561.62
2018-12-31T11:54:52.334Z,102565.77
2018-12-31T11:57:22.054Z,102559.10
2018-12-31T11:59:51.683Z,102555.95
2018-12-31T12:02:23.566Z,102554.63
2018-12-31T12:04:52.685Z,102552.56
2018-12-31T12:07:22.334Z,102547.83
2018-12-31T12:09:52.036Z,102543.94
2018-12-31T12:12:21.853Z,102541.41
2018-12-31T12:14:51.518Z,102540.36
2018-12-31T12:17:21.307Z,102543.22
2018-12-31T12:19:50.958Z,102544.33
2018-12-31T12:22:20.584Z,102553.19
2018-12-31T12:24:50.426Z,102540.44
2018-12-31T12:27:20.099Z,102537.38
2018-12-31T12:29:49.816Z,102534.89
2018-12-31T12:32:19.475Z,102541.98
2018-12-31T12:34:49.108Z,102540.80
2018-12-31T12:37:18.738Z,102540.27
2018-12-31T12:39:48.410Z,102548.98
2018-12-31T12:42:18.059Z,102546.66
2018-12-31T12:44:47.765Z,102550.45
2018-12-31T12:47:17.510Z,102543.36
2018-12-31T12:49:47.188Z,102549.38
2018-12-31T12:52:16.871Z,102544.02
2018-12-31T12:54:46.656Z,102549.38
2018-12-31T12:57:16.287Z,102544.61
2018-12-31T12:59:46.336Z,102537.23
2018-12-31T13:02:16.047Z,102535.39
2018-12-31T13:04:45.684Z,102530.20
2018-12-31T13:07:15.371Z,102530.58
2018-12-31T13:09:45.163Z,102530.39
2018-12-31T13:12:14.825Z,102528.10
2018-12-31T13:14:44.484Z,102526.58
2018-12-31T13:17:14.221Z,102525.45
2018-12-31T13:19:43.878Z,102528.63
2018-12-31T13:22:13.618Z,102526.09
2018-12-31T13:24:43.296Z,102526.09
2018-12-31T13:27:12.960Z,102523.31
2018-12-31T13:29:42.661Z,102525.10
2018-12-31T13:32:12.303Z,102521.86
2018-12-31T13:34:42.370Z,102517.99
2018-12-31T13:37:12.151Z,102521.47
2018-12-31T13:39:41.831Z,102522.06
2018-12-31T13:42:11.513Z,102531.59
2018-12-31T13:44:41.183Z,102536.02
2018-12-31T13:47:11.028Z,102545.45
2018-12-31T13:49:40.758Z,102532.17
2018-12-31T13:52:10.416Z,102535.89
2018-12-31T13:54:40.045Z,102535.14
2018-12-31T13:57:09.710Z,102531.15
2018-12-31T13:59:39.397Z,102527.52
2018-12-31T14:02:09.058Z,102525.81
2018-12-31T14:04:38.788Z,102528.70
2018-12-31T14:07:08.421Z,102531.63
2018-12-31T14:09:38.045Z,102529.17
2018-12-31T14:12:08.475Z,102528.55
2018-12-31T14:14:38.234Z,102522.86
2018-12-31T14:17:08.431Z,102523.44
2018-12-31T14:19:38.099Z,102525.30
2018-12-31T14:22:07.857Z,102511.00
2018-12-31T14:24:37.530Z,102509.52
2018-12-31T14:27:07.302Z,102509.52
2018-12-31T14:29:37.034Z,102509.66
2018-12-31T14:32:06.672Z,102505.50
2018-12-31T14:34:36.342Z,102514.62
2018-12-31T14:37:06.560Z,102511.81
2018-12-31T14:39:38.486Z,102519.73
2018-12-31T14:42:09.986Z,102518.02
2018-12-31T14:44:39.795Z,102511.05
2018-12-31T14:47:09.487Z,102510.39
2018-12-31T14:49:39.153Z,102515.02
2018-12-31T14:52:08.805Z,102516.88
2018-12-31T14:54:38.692Z,102516.35
2018-12-31T14:57:08.342Z,102509.66
2018-12-31T14:59:41.054Z,102510.23
2018-12-31T15:02:10.794Z,102517.58
2018-12-31T15:04:40.913Z,102523.96
2018-12-31T15:07:13.679Z,102517.76
2018-12-31T15:09:43.424Z,102527.20
2018-12-31T15:12:13.060Z,102523.12
2018-12-31T15:14:42.814Z,102524.47
2018-12-31T15:17:12.474Z,102524.75
2018-12-31T15:19:42.119Z,102536.88
2018-12-31T15:22:11.764Z,102539.48
2018-12-31T15:24:41.533Z,102534.20
2018-12-31T15:27:11.192Z,102541.41
2018-12-31T15:29:40.864Z,102538.09
2018-12-31T15:32:10.574Z,102527.83
2018-12-31T15:34:40.276Z,102532.67
2018-12-31T15:37:09.937Z,102522.91
2018-12-31T15:39:39.578Z,102525.00
2018-12-31T15:42:09.218Z,102524.36
2018-12-31T15:44:38.940Z,102522.02
2018-12-31T15:47:08.681Z,102512.50
2018-12-31T15:49:38.313Z,102512.20
2018-12-31T15:52:08.035Z,102515.09
2018-12-31T15:54:38.069Z,102507.53
2018-12-31T15:57:07.738Z,102504.00
2018-12-31T15:59:37.503Z,102499.02
2018-12-31T16:02:07.117Z,102501.16
2018-12-31T16:04:36.827Z,102496.08
2018-12-31T16:07:06.742Z,102493.23
2018-12-31T16:09:36.386Z,102500.87
2018-12-31T16:12:06.043Z,102507.72
2018-12-31T16:14:35.714Z,102491.50
2018-12-31T16:17:05.430Z,102494.10
2018-12-31T16:19:35.064Z,102487.53
2018-12-31T16:22:04.732Z,102493.85
2018-12-31T16:24:34.422Z,102493.85
2018-12-31T16:27:04.203Z,102480.73
2018-12-31T16:29:34.093Z,102485.45
2018-12-31T16:32:03.779Z,102483.19
2018-12-31T16:34:33.451Z,102475.91
2018-12-31T16:37:03.111Z,102472.19
2018-12-31T16:39:32.742Z,102472.39
2018-12-31T16:42:02.426Z,102472.65
2018-12-31T16:44:32.083Z,102469.70
2018-12-31T16:47:01.724Z,102466.18
2018-12-31T16:49:31.401Z,102461.16
2018-12-31T16:52:02.771Z,102460.20
2018-12-31T16:54:32.519Z,102463.05
2018-12-31T16:57:02.159Z,102470.84
2018-12-31T16:59:31.836Z,102465.82
2018-12-31T17:02:01.483Z,102458.86
2018-12-31T17:04:31.567Z,102455.58
2018-12-31T17:07:01.438Z,102462.94
2018-12-31T17:09:31.207Z,102469.27
2018-12-31T17:12:00.830Z,102467.27
2018-12-31T17:14:30.501Z,102467.88
2018-12-31T17:17:00.236Z,102468.24
2018-12-31T17:19:30.283Z,102469.21
2018-12-31T17:22:02.795Z,102473.22
2018-12-31T17:24:32.460Z,102471.23
2018-12-31T17:27:02.127Z,102473.02
2018-12-31T17:29:31.783Z,102466.84
2018-12-31T17:32:01.455Z,102465.62
2018-12-31T17:34:31.067Z,102463.50
2018-12-31T17:37:00.723Z,102452.95
2018-12-31T17:39:30.588Z,102454.63
2018-12-31T17:42:00.211Z,102455.14
2018-12-31T17:44:29.856Z,102451.22
2018-12-31T17:46:59.555Z,102444.40
2018-12-31T17:49:29.226Z,102443.97
2018-12-31T17:51:58.946Z,102445.68
2018-12-31T17:54:28.578Z,102445.24
2018-12-31T17:56:58.237Z,102449.20
2018-12-31T17:59:27.892Z,102451.81
2018-12-31T18:01:57.557Z,102441.91
2018-12-31T18:04:27.228Z,102452.27
2018-12-31T18:06:57.335Z,102443.81
2018-12-31T18:09:27.052Z,102447.47
2018-12-31T18:11:56.686Z,102453.93
2018-12-31T18:14:26.323Z,102447.87
2018-12-31T18:16:55.972Z,102444.72
2018-12-31T18:19:25.695Z,102445.87
2018-12-31T18:21:55.369Z,102436.80
2018-12-31T18:24:24.998Z,102431.83
2018-12-31T18:26:54.625Z,102432.27
2018-12-31T18:29:24.353Z,102435.38
2018-12-31T18:31:53.981Z,102439.09
2018-12-31T18:34:23.633Z,102431.36
2018-12-31T18:36:53.294Z,102433.80
2018-12-31T18:39:22.954Z,102427.52
2018-12-31T18:41:52.630Z,102424.59
2018-12-31T18:44:22.292Z,102427.11
2018-12-31T18:46:51.974Z,102429.23
2018-12-31T18:49:21.638Z,102425.02
2018-12-31T18:51:51.296Z,102427.73
2018-12-31T18:54:20.961Z,102435.95
2018-12-31T18:56:50.677Z,102440.63
2018-12-31T18:59:20.323Z,102437.26
2018-12-31T19:01:50.006Z,102450.71
2018-12-31T19:04:19.649Z,102435.08
2018-12-31T19:06:49.407Z,102438.01
2018-12-31T19:09:19.146Z,102435.45
2018-12-31T19:11:48.827Z,102440.44
2018-12-31T19:14:18.464Z,102445.22
2018-12-31T19:16:48.192Z,102441.72
2018-12-31T19:19:18.230Z,102442.41
2018-12-31T19:21:48.015Z,102439.78
2018-12-31T19:24:17.701Z,102447.28
2018-12-31T19:26:47.806Z,102445.75
2018-12-31T19:29:17.661Z,102430.33
2018-12-31T19:31:47.832Z,102430.73
2018-12-31T19:34:17.496Z,102429.52
2018-12-31T19:36:47.308Z,102419.56
2018-12-31T19:39:17.231Z,102418.38
2018-12-31T19:41:46.932Z,102418.78
2018-12-31T19:44:16.864Z,102419.03
2018-12-31T19:46:46.686Z,102418.41
2018-12-31T19:49:16.575Z,102424.65
2018-12-31T19:51:46.376Z,102418.78
2018-12-31T19:54:16.283Z,102412.02
2018-12-31T19:56:46.029Z,102412.63
2018-12-31T19:59:15.746Z,102415.31
2018-12-31T20:01:45.693Z,102411.95
2018-12-31T20:04:15.326Z,102404.67
2018-12-31T20:06:45.099Z,102403.89
2018-12-31T20:09:14.848Z,102404.39
2018-12-31T20:11:44.687Z,102403.11
2018-12-31T20:14:14.398Z,102395.16
2018-12-31T20:16:44.029Z,102393.97
2018-12-31T20:19:13.851Z,102395.56
2018-12-31T20:21:43.579Z,102402.67
2018-12-31T20:24:13.423Z,102399.11
2018-12-31T20:26:43.121Z,102391.75
2018-12-31T20:29:12.814Z,102380.52
2018-12-31T20:31:42.579Z,102370.72
2018-12-31T20:34:12.383Z,102370.06
2018-12-31T20:36:42.173Z,102360.39
2018-12-31T20:39:11.856Z,102351.98
2018-12-31T20:41:41.506Z,102352.34
2018-12-31T20:44:11.428Z,102343.39
2018-12-31T20:46:41.739Z,102339.55
2018-12-31T20:49:11.513Z,102337.71
2018-12-31T20:51:41.213Z,102331.63
2018-12-31T20:54:11.265Z,102320.02
2018-12-31T20:56:40.984Z,102324.95
2018-12-31T20:59:11.178Z,102333.88
2018-12-31T21:01:41.126Z,102319.30
2018-12-31T21:04:10.983Z,102324.61
2018-12-31T21:06:40.732Z,102315.75
2018-12-31T21:09:10.534Z,102319.12
2018-12-31T21:11:40.480Z,102321.86
2018-12-31T21:14:10.177Z,102319.67
2018-12-31T21:16:39.808Z,102313.62
2018-12-31T21:19:09.472Z,102310.09
2018-12-31T21:21:39.142Z,102310.22
2018-12-31T21:24:09.051Z,102312.47
2018-12-31T21:26:38.723Z,102306.91
2018-12-31T21:29:08.440Z,102304.72
2018-12-31T21:31:38.149Z,102307.09
2018-12-31T21:34:08.046Z,102311.00
2018-12-31T21:36:37.855Z,102308.94
2018-12-31T21:39:08.205Z,102304.83
2018-12-31T21:41:37.951Z,102304.90
2018-12-31T21:44:07.893Z,102310.76
2018-12-31T21:46:37.521Z,102296.95
2018-12-31T21:49:07.374Z,102314.56
2018-12-31T21:51:39.914Z,102300.84
2018-12-31T21:54:09.581Z,102299.91
2018-12-31T21:56:39.376Z,102289.68
2018-12-31T21:59:09.240Z,102285.59
2018-12-31T22:01:38.922Z,102275.42
2018-12-31T22:04:08.686Z,102271.75
2018-12-31T22:06:38.620Z,102273.15
2018-12-31T22:09:08.792Z,102255.78
2018-12-31T22:11:38.487Z,102248.78
2018-12-31T22:14:08.286Z,102258.48
2018-12-31T22:16:38.202Z,102249.63
2018-12-31T22:19:07.928Z,102234.56
2018-12-31T22:21:37.790Z,102243.23
2018-12-31T22:24:07.542Z,102233.91
2018-12-31T22:26:37.262Z,102231.39
2018-12-31T22:29:07.034Z,102241.59
2018-12-31T22:31:36.885Z,102224.59
2018-12-31T22:34:06.529Z,102232.13
2018-12-31T22:36:36.213Z,102231.17
2018-12-31T22:39:06.949Z,102224.70
2018-12-31T22:41:37.096Z,102221.45
2018-12-31T22:44:06.866Z,102219.48
2018-12-31T22:46:36.902Z,102219.73
2018-12-31T22:49:07.005Z,102214.56
2018-12-31T22:51:36.666Z,102210.61
2018-12-31T22:54:06.402Z,102215.97
2018-12-31T22:56:36.310Z,102206.59
2018-12-31T22:59:05.989Z,102208.19
2018-12-31T23:01:35.705Z,102203.48
2018-12-31T23:04:05.362Z,102179.92
2018-12-31T23:06:35.349Z,102173.13
2018-12-31T23:09:09.049Z,102171.91
2018-12-31T23:11:39.158Z,102174.83
2018-12-31T23:14:08.891Z,102164.77
2018-12-31T23:16:38.973Z,102166.19
2018-12-31T23:19:08.692Z,102167.59
2018-12-31T23:21:51.032Z,102158.19
2018-12-31T23:24:20.711Z,102152.03
2018-12-31T23:26:59.865Z,102136.83
2018-12-31T23:29:34.221Z,102133.52
2018-12-31T23:32:06.941Z,102137.48
2018-12-31T23:34:36.611Z,102128.16
2018-12-31T23:37:06.269Z,102123.38
2018-12-31T23:39:35.897Z,102133.45
2018-12-31T23:42:05.661Z,102142.80
2018-12-31T23:44:35.296Z,102134.51
2018-12-31T23:47:04.926Z,102145.42
2018-12-31T23:49:34.591Z,102132.86
2018-12-31T23:52:04.505Z,102131.11
2018-12-31T23:54:35.063Z,102127.20
2018-12-31T23:57:05.085Z,102121.48
2018-12-31T23:59:35.194Z,102115.43
